Time;durP1;ratioP1;P1;durP2;ratioP2;P2;SDS_P1;SDS_P2;PMS_P1;PMS_P2;Temp;Humidity;BMP_temperature;BMP_pressure;BME280_temperature;BME280_humidity;BME280_pressure;Samples;Min_cycle;Max_cycle;Signal;HPM_P1;HPM_P2
2021/12/29 00:00:58;;;;;;;;;;;6.80;99.90;;;;;;5047540;28;19921;-78
2021/12/29 00:03:23;;;;;;;;;;;6.70;99.90;;;;;;5029782;28;19951;-78
2021/12/29 00:05:49;;;;;;;;;;;6.70;99.90;;;;;;5047036;28;20298;-78
2021/12/29 00:08:14;;;;;;;;;;;6.70;99.90;;;;;;5047009;28;19971;-78
2021/12/29 00:10:40;;;;;;;;;;;6.70;99.90;;;;;;5047032;28;20393;-78
2021/12/29 00:13:06;;;;;;;;;;;6.70;99.90;;;;;;5029956;28;19921;-79
2021/12/29 00:15:32;;;;;;;;;;;6.70;99.90;;;;;;5046907;28;20409;-78
2021/12/29 00:17:58;;;;;;;;;;;6.70;99.90;;;;;;5013613;28;19948;-78
2021/12/29 00:20:28;;;;;;;;;;;6.70;99.90;;;;;;5030371;28;19975;-79
2021/12/29 00:22:54;;;;;;;;;;;6.70;99.90;;;;;;5045749;28;19926;-79
2021/12/29 00:25:20;;;;;;;;;;;6.80;99.90;;;;;;5029623;28;19933;-78
2021/12/29 00:27:45;;;;;;;;;;;6.70;99.90;;;;;;5029795;28;19921;-78
2021/12/29 00:30:12;;;;;;;;;;;6.70;99.90;;;;;;5046544;28;20017;-78
2021/12/29 00:32:37;;;;;;;;;;;6.70;99.90;;;;;;4996650;28;19921;-78
2021/12/29 00:35:04;;;;;;;;;;;6.70;99.90;;;;;;5013595;28;20297;-78
2021/12/29 00:37:29;;;;;;;;;;;6.70;99.90;;;;;;4996818;28;19928;-78
2021/12/29 00:39:55;;;;;;;;;;;6.70;99.90;;;;;;5046339;28;19921;-78
2021/12/29 00:42:20;;;;;;;;;;;6.70;99.90;;;;;;5029632;28;20377;-78
2021/12/29 00:44:46;;;;;;;;;;;6.60;99.90;;;;;;5012712;28;20298;-78
2021/12/29 00:47:12;;;;;;;;;;;6.70;99.90;;;;;;4996374;28;19926;-78
2021/12/29 00:49:38;;;;;;;;;;;6.70;99.90;;;;;;5044868;28;19999;-78
2021/12/29 00:52:07;;;;;;;;;;;6.70;99.90;;;;;;4996345;28;19921;-78
2021/12/29 00:54:38;;;;;;;;;;;6.70;99.90;;;;;;5029212;28;20386;-78
2021/12/29 00:57:03;;;;;;;;;;;6.70;99.90;;;;;;5029454;28;19922;-78
2021/12/29 00:59:29;;;;;;;;;;;6.70;99.90;;;;;;5012658;28;19929;-78
2021/12/29 01:01:54;;;;;;;;;;;6.70;99.90;;;;;;4996336;28;19929;-78
2021/12/29 01:04:20;;;;;;;;;;;6.70;99.90;;;;;;5029166;28;19941;-78
2021/12/29 01:06:46;;;;;;;;;;;6.80;99.90;;;;;;4996526;28;19922;-78
2021/12/29 01:09:12;;;;;;;;;;;6.80;99.90;;;;;;5029193;28;19925;-78
2021/12/29 01:11:38;;;;;;;;;;;6.80;99.90;;;;;;5029563;28;19921;-78
2021/12/29 01:14:04;;;;;;;;;;;6.80;99.90;;;;;;4995769;28;20409;-78
2021/12/29 01:36:49;;;;;;;;;;;6.80;99.90;;;;;;5041586;28;20435;-79
2021/12/29 01:39:45;;;;;;;;;;;6.80;99.90;;;;;;5014197;28;19921;-80
2021/12/29 01:42:16;;;;;;;;;;;6.80;99.90;;;;;;5092139;22;19925;-76
2021/12/29 01:44:42;;;;;;;;;;;6.80;99.90;;;;;;5044533;28;19925;-75
2021/12/29 01:47:07;;;;;;;;;;;6.80;99.90;;;;;;5044779;28;20401;-76
2021/12/29 01:49:33;;;;;;;;;;;6.90;99.90;;;;;;5045039;28;19921;-75
2021/12/29 01:52:03;;;;;;;;;;;6.90;99.90;;;;;;5028580;28;19921;-75
2021/12/29 01:54:34;;;;;;;;;;;6.90;99.90;;;;;;5011775;28;20072;-75
2021/12/29 01:57:00;;;;;;;;;;;6.90;99.90;;;;;;5011082;28;19925;-75
2021/12/29 01:59:28;;;;;;;;;;;6.90;99.90;;;;;;5010348;28;21368;-75
2021/12/29 02:01:53;;;;;;;;;;;7.00;99.90;;;;;;5011598;28;19929;-75
2021/12/29 02:04:19;;;;;;;;;;;7.00;99.90;;;;;;5011777;28;19930;-75
2021/12/29 02:06:45;;;;;;;;;;;7.00;99.90;;;;;;5011252;28;19925;-76
2021/12/29 02:09:11;;;;;;;;;;;7.10;99.90;;;;;;5010939;28;19922;-75
2021/12/29 02:11:38;;;;;;;;;;;7.20;99.90;;;;;;5011544;28;19988;-76
2021/12/29 02:14:05;;;;;;;;;;;7.20;99.90;;;;;;5011275;28;19925;-75
2021/12/29 02:16:30;;;;;;;;;;;7.20;99.90;;;;;;4994712;28;20004;-76
2021/12/29 02:19:00;;;;;;;;;;;7.30;99.90;;;;;;4994724;28;20377;-76
2021/12/29 02:21:27;;;;;;;;;;;7.30;99.90;;;;;;5011198;28;20381;-76
2021/12/29 02:24:37;;;;;;;;;;;7.30;99.90;;;;;;4994706;28;19926;-76
2021/12/29 02:26:42;;;;;;;;;;;7.30;99.90;;;;;;5008687;28;19921;-76
2021/12/29 02:29:09;;;;;;;;;;;7.30;99.90;;;;;;5011369;28;20457;-76
2021/12/29 02:31:36;;;;;;;;;;;7.30;99.90;;;;;;5010703;28;20921;-76
2021/12/29 02:34:02;;;;;;;;;;;7.30;99.90;;;;;;4994641;28;19921;-76
2021/12/29 02:36:28;;;;;;;;;;;7.40;99.90;;;;;;5010914;28;19925;-76
2021/12/29 02:38:55;;;;;;;;;;;7.30;99.90;;;;;;5010902;28;19922;-76
2021/12/29 02:41:22;;;;;;;;;;;7.30;99.90;;;;;;5011135;28;19921;-76
2021/12/29 02:43:49;;;;;;;;;;;7.30;99.90;;;;;;5010745;28;19926;-76
2021/12/29 02:46:15;;;;;;;;;;;7.30;99.90;;;;;;5010581;28;19929;-76
2021/12/29 02:48:55;;;;;;;;;;;7.30;99.90;;;;;;4994439;28;19928;-76
2021/12/29 02:51:21;;;;;;;;;;;7.30;99.90;;;;;;5011308;28;19921;-76
2021/12/29 02:53:46;;;;;;;;;;;7.30;99.90;;;;;;5010760;28;20365;-76
2021/12/29 02:56:12;;;;;;;;;;;7.30;99.90;;;;;;5010791;28;19997;-76
2021/12/29 02:58:37;;;;;;;;;;;7.30;99.90;;;;;;5010644;28;19928;-76
2021/12/29 03:01:05;;;;;;;;;;;7.30;99.90;;;;;;5010989;28;20452;-76
2021/12/29 03:03:30;;;;;;;;;;;7.30;99.90;;;;;;5010568;28;19929;-76
2021/12/29 03:05:57;;;;;;;;;;;7.30;99.90;;;;;;5010459;28;19971;-76
2021/12/29 03:08:23;;;;;;;;;;;7.30;99.90;;;;;;5014058;28;20012;-76
2021/12/29 03:10:52;;;;;;;;;;;7.20;99.90;;;;;;4999049;28;20328;-76
2021/12/29 03:13:25;;;;;;;;;;;7.30;99.90;;;;;;5014440;28;20390;-76
2021/12/29 03:15:51;;;;;;;;;;;7.30;99.90;;;;;;5014134;28;19965;-76
2021/12/29 03:18:17;;;;;;;;;;;7.20;99.90;;;;;;5014314;28;20274;-76
2021/12/29 03:20:43;;;;;;;;;;;7.20;99.90;;;;;;5014825;28;19980;-76
2021/12/29 03:23:09;;;;;;;;;;;7.20;99.90;;;;;;5014348;28;19925;-76
2021/12/29 03:25:35;;;;;;;;;;;7.20;99.90;;;;;;4998201;28;20393;-76
2021/12/29 03:28:00;;;;;;;;;;;7.20;99.90;;;;;;5014165;28;19929;-76
2021/12/29 03:30:31;;;;;;;;;;;7.20;99.90;;;;;;5014224;28;19929;-76
2021/12/29 03:33:03;;;;;;;;;;;7.20;99.90;;;;;;5014184;28;19936;-76
2021/12/29 03:35:33;;;;;;;;;;;7.20;99.90;;;;;;4997568;28;19976;-76
2021/12/29 03:37:59;;;;;;;;;;;7.20;99.90;;;;;;5014134;28;20400;-76
2021/12/29 03:40:25;;;;;;;;;;;7.20;99.90;;;;;;5014290;28;19973;-76
2021/12/29 03:42:51;;;;;;;;;;;7.20;99.90;;;;;;5014010;28;19968;-76
2021/12/29 03:45:16;;;;;;;;;;;7.20;99.90;;;;;;5014548;28;19928;-76
2021/12/29 03:47:41;;;;;;;;;;;7.20;99.90;;;;;;4997563;28;19940;-76
2021/12/29 03:50:08;;;;;;;;;;;7.20;99.90;;;;;;5013871;28;19921;-76
2021/12/29 03:52:33;;;;;;;;;;;7.20;99.90;;;;;;5013810;28;19922;-76
2021/12/29 03:54:58;;;;;;;;;;;7.10;99.90;;;;;;4997660;28;20243;-76
2021/12/29 03:57:24;;;;;;;;;;;7.20;99.90;;;;;;5014008;28;19937;-76
2021/12/29 03:59:49;;;;;;;;;;;7.20;99.90;;;;;;5013754;28;20004;-76
2021/12/29 04:02:15;;;;;;;;;;;7.10;99.90;;;;;;5013783;28;19926;-76
2021/12/29 04:04:40;;;;;;;;;;;7.20;99.90;;;;;;5013676;28;19925;-76
2021/12/29 04:07:06;;;;;;;;;;;7.10;99.90;;;;;;5013720;28;19968;-76
2021/12/29 04:09:31;;;;;;;;;;;7.20;99.90;;;;;;4978232;28;20416;-76
2021/12/29 04:11:57;;;;;;;;;;;7.10;99.90;;;;;;4994087;28;19922;-76
2021/12/29 04:14:26;;;;;;;;;;;7.10;99.90;;;;;;5004623;28;19928;-76
2021/12/29 04:16:51;;;;;;;;;;;7.10;99.90;;;;;;4994145;28;19972;-76
2021/12/29 04:19:32;;;;;;;;;;;7.10;99.90;;;;;;4976655;28;19929;-76
2021/12/29 04:21:58;;;;;;;;;;;7.20;99.90;;;;;;5009072;28;19925;-76
2021/12/29 04:24:24;;;;;;;;;;;7.10;99.90;;;;;;5013389;28;20416;-76
2021/12/29 04:26:50;;;;;;;;;;;7.20;99.90;;;;;;5012997;28;19984;-76
2021/12/29 04:29:16;;;;;;;;;;;7.20;99.90;;;;;;5013457;28;20325;-76
2021/12/29 04:31:42;;;;;;;;;;;7.20;99.90;;;;;;4997052;28;19921;-76
2021/12/29 04:34:08;;;;;;;;;;;7.20;99.90;;;;;;4996628;28;19947;-76
2021/12/29 04:36:34;;;;;;;;;;;7.20;99.90;;;;;;5012907;28;20016;-76
2021/12/29 04:39:01;;;;;;;;;;;7.20;99.90;;;;;;5013188;28;19921;-76
2021/12/29 04:41:26;;;;;;;;;;;7.20;99.90;;;;;;4996628;28;19926;-76
2021/12/29 04:43:52;;;;;;;;;;;7.20;99.90;;;;;;5012707;28;19926;-76
2021/12/29 04:46:19;;;;;;;;;;;7.20;99.90;;;;;;5013465;28;19921;-76
2021/12/29 04:48:58;;;;;;;;;;;7.20;99.90;;;;;;4996527;28;19976;-76
2021/12/29 04:51:32;;;;;;;;;;;7.20;99.90;;;;;;4996791;28;20293;-76
2021/12/29 04:53:57;;;;;;;;;;;7.30;99.90;;;;;;5012920;28;19928;-76
2021/12/29 04:56:23;;;;;;;;;;;7.20;99.90;;;;;;5012894;28;19921;-76
2021/12/29 04:58:48;;;;;;;;;;;7.30;99.90;;;;;;5012819;28;20385;-76
2021/12/29 05:01:14;;;;;;;;;;;7.30;99.90;;;;;;5012886;28;20013;-76
2021/12/29 05:03:43;;;;;;;;;;;7.30;99.90;;;;;;5012224;28;19929;-76
2021/12/29 05:08:34;;;;;;;;;;;7.30;99.90;;;;;;5012705;28;20317;-76
2021/12/29 05:11:11;;;;;;;;;;;7.30;99.90;;;;;;5012796;28;19926;-76
2021/12/29 05:13:38;;;;;;;;;;;7.30;99.90;;;;;;4996420;28;19921;-76
2021/12/29 05:16:04;;;;;;;;;;;7.30;99.90;;;;;;5012419;28;20369;-76
2021/12/29 05:18:30;;;;;;;;;;;7.30;99.90;;;;;;5012573;28;19922;-76
2021/12/29 05:20:56;;;;;;;;;;;7.20;99.90;;;;;;4996177;28;19922;-76
2021/12/29 05:23:23;;;;;;;;;;;7.30;99.90;;;;;;4995582;28;19951;-76
2021/12/29 05:25:49;;;;;;;;;;;7.30;99.90;;;;;;4995503;28;19921;-76
2021/12/29 05:28:17;;;;;;;;;;;7.30;99.90;;;;;;4995839;28;19921;-76
2021/12/29 05:30:43;;;;;;;;;;;7.30;99.90;;;;;;4995979;28;19926;-76
2021/12/29 05:33:09;;;;;;;;;;;7.20;99.90;;;;;;5012135;28;20008;-76
2021/12/29 05:35:34;;;;;;;;;;;7.20;99.90;;;;;;5012064;28;19964;-76
2021/12/29 05:38:00;;;;;;;;;;;7.20;99.90;;;;;;5012342;28;19925;-76
2021/12/29 05:40:27;;;;;;;;;;;7.20;99.90;;;;;;5012049;28;19922;-76
2021/12/29 05:42:52;;;;;;;;;;;7.20;99.90;;;;;;4992064;28;20012;-76
2021/12/29 05:45:18;;;;;;;;;;;7.20;99.90;;;;;;5003117;28;19972;-76
2021/12/29 05:47:44;;;;;;;;;;;7.20;99.90;;;;;;5012043;28;19929;-76
2021/12/29 05:50:11;;;;;;;;;;;7.20;99.90;;;;;;5011751;28;19936;-76
2021/12/29 05:52:36;;;;;;;;;;;7.20;99.90;;;;;;5011652;28;19925;-76
2021/12/29 05:55:02;;;;;;;;;;;7.20;99.90;;;;;;4995635;28;20288;-76
2021/12/29 05:57:28;;;;;;;;;;;7.20;99.90;;;;;;5012193;28;19925;-76
2021/12/29 05:59:53;;;;;;;;;;;7.20;99.90;;;;;;5011848;28;20008;-76
2021/12/29 06:02:19;;;;;;;;;;;7.20;99.90;;;;;;5011347;28;19933;-76
2021/12/29 06:04:44;;;;;;;;;;;7.20;99.90;;;;;;5011217;28;20004;-76
2021/12/29 06:07:11;;;;;;;;;;;7.20;99.90;;;;;;5012067;28;19965;-76
2021/12/29 06:09:37;;;;;;;;;;;7.20;99.90;;;;;;5011648;28;19921;-76
2021/12/29 06:12:02;;;;;;;;;;;7.10;99.90;;;;;;5011525;28;19931;-76
2021/12/29 06:14:28;;;;;;;;;;;7.20;99.90;;;;;;5010834;28;19921;-76
2021/12/29 06:16:53;;;;;;;;;;;7.10;99.90;;;;;;5011533;28;20394;-76
2021/12/29 06:19:19;;;;;;;;;;;7.10;99.90;;;;;;5011534;28;19927;-76
2021/12/29 06:21:44;;;;;;;;;;;7.20;99.90;;;;;;5011613;28;19921;-76
2021/12/29 06:24:10;;;;;;;;;;;7.10;99.90;;;;;;5011139;28;19925;-76
2021/12/29 06:26:36;;;;;;;;;;;7.20;99.90;;;;;;5011228;28;19921;-76
2021/12/29 06:29:02;;;;;;;;;;;7.20;99.90;;;;;;5011039;28;19976;-76
2021/12/29 06:31:28;;;;;;;;;;;7.20;99.90;;;;;;5011367;28;19928;-76
2021/12/29 06:33:53;;;;;;;;;;;7.20;99.90;;;;;;4994492;28;19921;-76
2021/12/29 06:36:19;;;;;;;;;;;7.20;99.90;;;;;;5011055;28;20454;-76
2021/12/29 06:38:47;;;;;;;;;;;7.20;99.90;;;;;;4994933;28;19971;-76
2021/12/29 06:41:12;;;;;;;;;;;7.10;99.90;;;;;;4994532;28;19925;-76
2021/12/29 06:43:38;;;;;;;;;;;7.20;99.90;;;;;;5010410;28;19925;-76
2021/12/29 06:46:03;;;;;;;;;;;7.10;99.90;;;;;;4994451;28;19928;-76
2021/12/29 06:48:29;;;;;;;;;;;7.20;99.90;;;;;;5011425;28;20004;-76
2021/12/29 06:50:54;;;;;;;;;;;7.20;99.90;;;;;;5010910;28;19928;-76
2021/12/29 06:53:20;;;;;;;;;;;7.20;99.90;;;;;;5011078;28;19932;-76
2021/12/29 06:55:45;;;;;;;;;;;7.20;99.90;;;;;;5010780;28;19928;-76
2021/12/29 06:58:11;;;;;;;;;;;7.20;99.90;;;;;;5010920;28;20021;-76
2021/12/29 07:00:37;;;;;;;;;;;7.20;99.90;;;;;;5011007;28;19965;-76
2021/12/29 07:03:03;;;;;;;;;;;7.20;99.90;;;;;;5010603;28;19925;-76
2021/12/29 07:05:28;;;;;;;;;;;7.20;99.90;;;;;;4993544;28;19968;-77
2021/12/29 07:07:54;;;;;;;;;;;7.20;99.90;;;;;;4994666;28;19922;-77
2021/12/29 07:10:20;;;;;;;;;;;7.20;99.90;;;;;;5011080;28;19926;-76
2021/12/29 07:12:46;;;;;;;;;;;7.20;99.90;;;;;;5010473;28;19921;-76
2021/12/29 07:15:11;;;;;;;;;;;7.20;99.90;;;;;;5010104;28;19971;-75
2021/12/29 07:17:37;;;;;;;;;;;7.20;99.90;;;;;;4990756;28;19944;-75
2021/12/29 07:20:03;;;;;;;;;;;7.20;99.90;;;;;;4989706;28;20295;-75
2021/12/29 07:22:28;;;;;;;;;;;7.20;99.90;;;;;;4994158;28;19926;-75
2021/12/29 07:24:54;;;;;;;;;;;7.20;99.90;;;;;;5010573;28;19937;-76
2021/12/29 07:27:19;;;;;;;;;;;7.10;99.90;;;;;;5009720;28;20464;-74
2021/12/29 07:29:45;;;;;;;;;;;7.20;99.90;;;;;;5010228;28;19929;-75
2021/12/29 07:32:10;;;;;;;;;;;7.10;99.90;;;;;;5010817;28;19922;-75
2021/12/29 07:34:36;;;;;;;;;;;7.20;99.90;;;;;;5010222;28;19929;-75
2021/12/29 07:37:02;;;;;;;;;;;7.10;99.90;;;;;;5010685;28;20029;-75
2021/12/29 07:39:27;;;;;;;;;;;7.20;99.90;;;;;;5005296;28;19929;-76
2021/12/29 07:41:54;;;;;;;;;;;7.10;99.90;;;;;;5010251;28;19921;-76
2021/12/29 07:44:20;;;;;;;;;;;7.20;99.90;;;;;;5053641;23;19951;-81
2021/12/29 07:46:52;;;;;;;;;;;7.20;99.90;;;;;;5023229;28;19921;-84
2021/12/29 07:49:17;;;;;;;;;;;7.10;99.90;;;;;;5030781;28;20384;-84
2021/12/29 07:51:42;;;;;;;;;;;7.20;99.90;;;;;;5016569;28;19925;-81
2021/12/29 07:54:08;;;;;;;;;;;7.20;99.90;;;;;;5013440;28;20389;-85
2021/12/29 07:56:34;;;;;;;;;;;7.20;99.90;;;;;;4999356;28;19948;-86
2021/12/29 07:58:59;;;;;;;;;;;7.20;99.90;;;;;;5016282;28;20000;-84
2021/12/29 08:01:25;;;;;;;;;;;7.20;99.90;;;;;;5028728;28;19983;-82
2021/12/29 08:03:51;;;;;;;;;;;7.20;99.90;;;;;;5019421;28;19990;-84
2021/12/29 08:06:16;;;;;;;;;;;7.30;99.90;;;;;;5015274;28;20016;-85
2021/12/29 08:08:42;;;;;;;;;;;7.30;99.90;;;;;;5016662;28;19968;-85
2021/12/29 08:11:08;;;;;;;;;;;7.30;99.90;;;;;;5017258;28;19921;-85
2021/12/29 08:13:33;;;;;;;;;;;7.30;99.90;;;;;;5011460;28;20381;-85
2021/12/29 08:15:59;;;;;;;;;;;7.30;99.90;;;;;;5013875;28;19991;-85
2021/12/29 08:18:24;;;;;;;;;;;7.30;99.90;;;;;;5017118;28;19963;-85
2021/12/29 08:20:50;;;;;;;;;;;7.30;99.90;;;;;;5017395;28;19921;-84
2021/12/29 08:23:15;;;;;;;;;;;7.40;99.90;;;;;;5016598;28;19982;-85
2021/12/29 08:25:41;;;;;;;;;;;7.40;99.90;;;;;;5033432;28;20419;-85
2021/12/29 08:28:06;;;;;;;;;;;7.30;99.90;;;;;;5008665;28;20571;-84
2021/12/29 08:30:32;;;;;;;;;;;7.30;99.90;;;;;;4997440;28;19921;-83
2021/12/29 08:32:58;;;;;;;;;;;7.40;99.90;;;;;;5002558;28;19925;-84
2021/12/29 08:35:23;;;;;;;;;;;7.40;99.90;;;;;;5020552;28;20415;-85
2021/12/29 08:37:49;;;;;;;;;;;7.40;99.90;;;;;;5000026;28;19921;-84
2021/12/29 08:40:15;;;;;;;;;;;7.40;99.90;;;;;;5019423;28;19928;-84
2021/12/29 08:42:41;;;;;;;;;;;7.50;99.90;;;;;;5003342;28;19925;-84
2021/12/29 08:45:07;;;;;;;;;;;7.40;99.90;;;;;;5011521;28;19928;-83
2021/12/29 08:47:33;;;;;;;;;;;7.50;99.90;;;;;;5007706;28;19922;-86
2021/12/29 08:49:58;;;;;;;;;;;7.50;99.90;;;;;;5013763;28;19929;-81
2021/12/29 08:52:24;;;;;;;;;;;7.60;99.90;;;;;;5017509;28;19921;-81
2021/12/29 08:54:50;;;;;;;;;;;7.60;99.90;;;;;;5032108;28;19968;-82
2021/12/29 08:57:15;;;;;;;;;;;7.60;99.90;;;;;;5016032;28;20289;-82
2021/12/29 08:59:41;;;;;;;;;;;7.60;99.90;;;;;;5016342;28;19921;-82
2021/12/29 09:02:06;;;;;;;;;;;7.60;99.90;;;;;;5010340;28;20401;-81
2021/12/29 09:04:32;;;;;;;;;;;7.60;99.90;;;;;;5015082;28;19928;-81
2021/12/29 09:06:57;;;;;;;;;;;7.60;99.90;;;;;;5013133;28;20324;-81
2021/12/29 09:09:23;;;;;;;;;;;7.60;99.90;;;;;;5023512;28;20007;-81
2021/12/29 09:11:48;;;;;;;;;;;7.70;99.90;;;;;;5026934;28;19925;-81
2021/12/29 09:14:14;;;;;;;;;;;7.70;99.90;;;;;;5016110;28;20381;-81
2021/12/29 09:16:40;;;;;;;;;;;7.70;99.90;;;;;;5004072;28;19928;-82
2021/12/29 09:19:11;;;;;;;;;;;7.70;99.90;;;;;;5001522;28;19922;-81
2021/12/29 09:21:38;;;;;;;;;;;7.70;99.90;;;;;;5006891;28;19940;-82
2021/12/29 09:24:04;;;;;;;;;;;7.70;99.90;;;;;;5010186;28;20305;-82
2021/12/29 09:26:29;;;;;;;;;;;7.70;99.90;;;;;;5008174;28;19929;-81
2021/12/29 09:28:55;;;;;;;;;;;7.70;99.90;;;;;;5029855;28;20194;-82
2021/12/29 09:31:20;;;;;;;;;;;7.70;99.90;;;;;;5012573;28;20314;-82
2021/12/29 09:33:46;;;;;;;;;;;7.80;99.90;;;;;;5012288;28;19922;-81
2021/12/29 09:36:11;;;;;;;;;;;7.70;99.90;;;;;;5012937;28;20297;-82
2021/12/29 09:38:39;;;;;;;;;;;7.80;99.90;;;;;;5019307;28;19978;-82
2021/12/29 09:41:09;;;;;;;;;;;7.90;99.90;;;;;;5029487;28;20037;-82
2021/12/29 09:43:35;;;;;;;;;;;7.90;99.90;;;;;;5024050;28;19924;-82
2021/12/29 09:46:01;;;;;;;;;;;7.90;99.90;;;;;;5035595;28;19928;-82
2021/12/29 09:48:26;;;;;;;;;;;8.00;99.90;;;;;;5006749;28;19929;-82
2021/12/29 09:50:52;;;;;;;;;;;7.90;99.90;;;;;;5014830;28;19921;-82
2021/12/29 09:53:18;;;;;;;;;;;7.90;99.90;;;;;;5010424;28;19967;-82
2021/12/29 09:55:45;;;;;;;;;;;7.90;99.90;;;;;;5007762;28;19921;-82
2021/12/29 09:58:12;;;;;;;;;;;7.90;99.90;;;;;;5031748;28;19921;-80
2021/12/29 10:00:43;;;;;;;;;;;7.80;99.90;;;;;;5032228;28;19924;-83
2021/12/29 10:03:09;;;;;;;;;;;7.90;99.90;;;;;;5003108;28;19996;-82
2021/12/29 10:05:35;;;;;;;;;;;7.90;99.90;;;;;;5006013;28;20008;-84
2021/12/29 10:08:04;;;;;;;;;;;7.90;99.90;;;;;;5013843;28;19975;-89
2021/12/29 10:10:30;;;;;;;;;;;7.90;99.90;;;;;;5014530;28;19921;-83
2021/12/29 10:12:56;;;;;;;;;;;7.90;99.90;;;;;;5014174;28;19925;-89
2021/12/29 10:15:26;;;;;;;;;;;7.90;99.90;;;;;;5015528;28;20381;-88
2021/12/29 10:17:59;;;;;;;;;;;7.90;99.90;;;;;;5013284;28;19971;-89
2021/12/29 10:20:24;;;;;;;;;;;7.90;99.90;;;;;;4998977;28;20081;-90
2021/12/29 10:22:59;;;;;;;;;;;7.90;99.90;;;;;;5014765;28;20028;-90
2021/12/29 10:25:25;;;;;;;;;;;7.90;99.90;;;;;;5015118;28;19928;-90
2021/12/29 10:27:51;;;;;;;;;;;8.00;99.90;;;;;;5015121;28;19921;-92
2021/12/29 10:30:44;;;;;;;;;;;8.00;99.90;;;;;;5010470;28;19964;-91
2021/12/29 10:33:11;;;;;;;;;;;8.00;99.90;;;;;;5011396;28;20366;-91
2021/12/29 10:35:37;;;;;;;;;;;8.00;99.90;;;;;;4995350;28;19921;-91
2021/12/29 10:38:14;;;;;;;;;;;8.10;99.90;;;;;;4995209;28;19956;-90
2021/12/29 10:40:40;;;;;;;;;;;8.10;99.90;;;;;;5007693;28;20397;-89
2021/12/29 10:43:05;;;;;;;;;;;8.10;99.90;;;;;;4999106;28;19976;-90
2021/12/29 10:45:33;;;;;;;;;;;8.20;99.90;;;;;;4995345;28;20293;-88
2021/12/29 10:48:00;;;;;;;;;;;8.20;99.90;;;;;;4995526;28;19929;-87
2021/12/29 10:50:27;;;;;;;;;;;8.30;99.90;;;;;;5001209;28;19929;-89
2021/12/29 10:52:54;;;;;;;;;;;8.30;99.90;;;;;;4994710;28;20400;-85
2021/12/29 10:55:31;;;;;;;;;;;8.40;99.90;;;;;;5005641;28;19921;-85
2021/12/29 10:58:10;;;;;;;;;;;8.40;99.90;;;;;;5014617;28;20387;-85
2021/12/29 11:00:37;;;;;;;;;;;8.40;99.90;;;;;;5031019;28;19922;-85
2021/12/29 11:03:06;;;;;;;;;;;8.50;99.90;;;;;;5014201;28;20155;-84
2021/12/29 11:05:37;;;;;;;;;;;8.50;99.90;;;;;;5014497;28;19975;-85
2021/12/29 11:08:10;;;;;;;;;;;8.60;99.90;;;;;;5014535;28;19925;-85
2021/12/29 11:10:36;;;;;;;;;;;8.50;99.90;;;;;;5014194;28;19921;-82
2021/12/29 11:13:01;;;;;;;;;;;8.50;99.90;;;;;;5025066;28;20392;-84
2021/12/29 11:15:28;;;;;;;;;;;8.50;99.90;;;;;;4995328;28;19922;-84
2021/12/29 11:17:55;;;;;;;;;;;8.50;99.90;;;;;;5013562;28;19932;-83
2021/12/29 11:20:26;;;;;;;;;;;8.50;99.90;;;;;;5013558;28;19927;-82
2021/12/29 11:23:02;;;;;;;;;;;8.50;99.90;;;;;;5012736;28;19926;-85
2021/12/29 11:25:28;;;;;;;;;;;8.50;99.90;;;;;;5011034;28;20377;-83
2021/12/29 11:27:54;;;;;;;;;;;8.50;99.90;;;;;;4995608;28;19987;-83
2021/12/29 11:30:20;;;;;;;;;;;8.50;99.90;;;;;;5001989;28;20365;-83
2021/12/29 11:32:46;;;;;;;;;;;8.50;99.90;;;;;;5012979;28;19929;-83
2021/12/29 11:35:13;;;;;;;;;;;8.50;99.90;;;;;;5014964;28;19968;-83
2021/12/29 11:37:44;;;;;;;;;;;8.50;99.90;;;;;;4998196;28;20000;-83
2021/12/29 11:40:11;;;;;;;;;;;8.50;99.90;;;;;;5018269;28;19922;-82
2021/12/29 11:42:37;;;;;;;;;;;8.50;99.90;;;;;;5011290;28;19925;-83
2021/12/29 11:45:03;;;;;;;;;;;8.50;99.90;;;;;;5008365;28;19922;-83
2021/12/29 11:47:29;;;;;;;;;;;8.40;99.90;;;;;;5017724;28;19921;-83
2021/12/29 11:49:54;;;;;;;;;;;8.40;99.90;;;;;;5013962;28;19930;-83
2021/12/29 11:52:32;;;;;;;;;;;8.40;99.90;;;;;;4998019;28;19921;-83
2021/12/29 11:55:05;;;;;;;;;;;8.40;99.90;;;;;;5014399;28;19945;-83
2021/12/29 11:57:31;;;;;;;;;;;8.40;99.90;;;;;;5026349;28;20316;-83
2021/12/29 12:00:16;;;;;;;;;;;8.40;99.90;;;;;;4997720;28;19921;-83
2021/12/29 12:02:41;;;;;;;;;;;8.40;99.90;;;;;;4997792;28;19933;-83
2021/12/29 12:05:08;;;;;;;;;;;8.40;99.90;;;;;;4997808;28;20262;-83
2021/12/29 12:07:34;;;;;;;;;;;8.40;99.90;;;;;;4998203;28;20341;-83
2021/12/29 12:10:06;;;;;;;;;;;8.40;99.90;;;;;;5014476;28;20045;-82
2021/12/29 12:12:34;;;;;;;;;;;8.40;99.90;;;;;;4997723;28;19926;-83
2021/12/29 12:15:00;;;;;;;;;;;8.40;99.90;;;;;;4999086;28;19960;-83
2021/12/29 12:17:27;;;;;;;;;;;8.40;99.90;;;;;;5033891;28;19925;-82
2021/12/29 12:20:01;;;;;;;;;;;8.40;99.90;;;;;;5014738;28;19928;-83
2021/12/29 12:22:27;;;;;;;;;;;8.40;99.90;;;;;;5015495;28;19991;-83
2021/12/29 12:24:57;;;;;;;;;;;8.40;99.90;;;;;;5016525;28;19928;-84
2021/12/29 12:27:35;;;;;;;;;;;8.40;99.90;;;;;;5016914;28;20404;-84
2021/12/29 12:30:01;;;;;;;;;;;8.40;99.90;;;;;;5024530;28;19929;-85
2021/12/29 12:32:26;;;;;;;;;;;8.40;99.90;;;;;;4997529;28;19921;-87
2021/12/29 12:34:57;;;;;;;;;;;8.40;99.90;;;;;;4997429;28;19921;-86
2021/12/29 12:37:29;;;;;;;;;;;8.40;99.90;;;;;;4997616;28;19968;-86
2021/12/29 12:40:04;;;;;;;;;;;8.40;99.90;;;;;;5016849;28;19975;-82
2021/12/29 12:42:30;;;;;;;;;;;8.40;99.90;;;;;;5032931;28;19929;-85
2021/12/29 12:44:57;;;;;;;;;;;8.40;99.90;;;;;;5016585;28;19921;-85
2021/12/29 12:47:27;;;;;;;;;;;8.40;99.90;;;;;;5029060;28;20328;-81
2021/12/29 12:49:53;;;;;;;;;;;8.30;99.90;;;;;;5012966;28;20000;-82
2021/12/29 12:52:22;;;;;;;;;;;8.30;99.90;;;;;;5012983;28;19929;-83
2021/12/29 12:54:52;;;;;;;;;;;8.30;99.90;;;;;;4996982;28;19925;-85
2021/12/29 12:57:28;;;;;;;;;;;8.30;99.90;;;;;;4997233;28;20290;-86
2021/12/29 12:59:54;;;;;;;;;;;8.30;99.90;;;;;;4998322;28;19924;-85
2021/12/29 13:02:22;;;;;;;;;;;8.30;99.90;;;;;;5008753;28;19925;-84
2021/12/29 13:05:05;;;;;;;;;;;8.20;99.90;;;;;;5024127;28;19920;-84
2021/12/29 13:07:31;;;;;;;;;;;8.20;99.90;;;;;;5039414;28;20401;-84
2021/12/29 13:09:56;;;;;;;;;;;8.20;99.90;;;;;;5011734;28;19921;-84
2021/12/29 13:12:29;;;;;;;;;;;8.20;99.90;;;;;;4996365;28;20341;-84
2021/12/29 13:15:03;;;;;;;;;;;8.20;99.90;;;;;;5012620;28;19971;-84
2021/12/29 13:17:28;;;;;;;;;;;8.20;99.90;;;;;;5013064;28;20294;-84
2021/12/29 13:19:54;;;;;;;;;;;8.20;99.90;;;;;;5020950;28;19925;-84
2021/12/29 13:22:38;;;;;;;;;;;8.20;99.90;;;;;;4996241;28;20389;-84
2021/12/29 13:25:08;;;;;;;;;;;8.20;99.90;;;;;;4996498;28;19976;-84
2021/12/29 13:27:34;;;;;;;;;;;8.20;99.90;;;;;;5008386;28;19931;-84
2021/12/29 13:30:00;;;;;;;;;;;8.20;99.90;;;;;;5009872;28;19921;-84
2021/12/29 13:32:27;;;;;;;;;;;8.20;99.90;;;;;;5031170;28;19983;-84
2021/12/29 13:35:03;;;;;;;;;;;8.20;99.90;;;;;;5032043;28;19921;-84
2021/12/29 13:37:29;;;;;;;;;;;8.30;99.90;;;;;;5015827;28;19921;-85
2021/12/29 13:39:55;;;;;;;;;;;8.20;99.90;;;;;;5026818;28;20392;-85
2021/12/29 13:42:20;;;;;;;;;;;8.20;99.90;;;;;;5012311;28;19933;-84
2021/12/29 13:44:46;;;;;;;;;;;8.10;99.90;;;;;;5009936;28;19929;-84
2021/12/29 13:47:18;;;;;;;;;;;8.20;99.90;;;;;;5015887;28;20019;-84
2021/12/29 13:49:43;;;;;;;;;;;8.10;99.90;;;;;;5031982;28;19925;-84
2021/12/29 13:52:09;;;;;;;;;;;8.10;99.90;;;;;;5013755;28;20001;-85
2021/12/29 13:54:34;;;;;;;;;;;8.10;99.90;;;;;;5015047;28;19921;-85
2021/12/29 13:57:00;;;;;;;;;;;8.10;99.90;;;;;;5031547;28;20396;-84
2021/12/29 13:59:26;;;;;;;;;;;8.10;99.90;;;;;;5015400;28;19944;-85
2021/12/29 14:01:56;;;;;;;;;;;8.10;99.90;;;;;;5030242;28;20307;-85
2021/12/29 14:04:23;;;;;;;;;;;8.10;99.90;;;;;;5015102;28;19925;-84
2021/12/29 14:06:53;;;;;;;;;;;8.00;99.90;;;;;;5015315;28;20011;-84
2021/12/29 14:09:19;;;;;;;;;;;8.00;99.90;;;;;;5028736;28;19925;-84
2021/12/29 14:11:44;;;;;;;;;;;8.00;99.90;;;;;;5014966;28;19967;-84
2021/12/29 14:14:11;;;;;;;;;;;8.00;99.90;;;;;;4995129;28;19921;-84
2021/12/29 14:17:03;;;;;;;;;;;8.00;99.90;;;;;;5002499;28;19925;-84
2021/12/29 14:19:29;;;;;;;;;;;7.90;99.90;;;;;;5044981;28;19928;-85
2021/12/29 14:21:56;;;;;;;;;;;7.90;99.90;;;;;;5015023;28;19928;-85
2021/12/29 14:24:22;;;;;;;;;;;7.90;99.90;;;;;;5017683;28;20455;-84
2021/12/29 14:26:49;;;;;;;;;;;7.90;99.90;;;;;;4995671;28;19925;-85
2021/12/29 14:29:21;;;;;;;;;;;7.90;99.90;;;;;;4995621;28;20337;-82
2021/12/29 14:31:52;;;;;;;;;;;7.90;99.90;;;;;;4995333;28;19922;-82
2021/12/29 14:34:18;;;;;;;;;;;7.90;99.90;;;;;;5021295;28;20563;-82
2021/12/29 14:36:48;;;;;;;;;;;7.80;99.90;;;;;;5034632;28;20022;-82
2021/12/29 14:39:17;;;;;;;;;;;7.80;99.90;;;;;;5004325;28;20011;-81
2021/12/29 14:41:43;;;;;;;;;;;7.80;99.90;;;;;;5014512;28;19976;-81
2021/12/29 14:44:13;;;;;;;;;;;7.80;99.90;;;;;;5006594;28;20472;-81
2021/12/29 14:46:49;;;;;;;;;;;7.80;99.90;;;;;;5025331;28;19922;-82
2021/12/29 14:49:15;;;;;;;;;;;7.70;99.90;;;;;;5022567;28;19925;-82
2021/12/29 14:51:50;;;;;;;;;;;7.80;99.90;;;;;;5000926;28;20427;-82
2021/12/29 14:54:15;;;;;;;;;;;7.70;99.90;;;;;;5030811;28;20079;-82